createdAt,value
2019-04-28T00:01:03.874Z,9.03
2019-04-28T00:03:33.176Z,10.85
2019-04-28T00:06:02.538Z,11.43
2019-04-28T00:08:31.961Z,9.75
2019-04-28T00:11:01.921Z,11.88
2019-04-28T00:13:32.136Z,8.90
2019-04-28T00:16:02.444Z,12.93
2019-04-28T00:18:31.784Z,9.33
2019-04-28T00:21:14.367Z,14.87
2019-04-28T00:23:51.636Z,9.18
2019-04-28T00:26:33.457Z,10.75
2019-04-28T00:29:02.423Z,10.23
2019-04-28T00:31:31.435Z,13.35
2019-04-28T00:34:01.346Z,11.50
2019-04-28T00:36:31.286Z,10.65
2019-04-28T00:39:01.551Z,10.48
2019-04-28T00:41:30.969Z,11.88
2019-04-28T00:44:01.940Z,10.50
2019-04-28T00:46:34.509Z,8.73
2019-04-28T00:49:03.774Z,11.10
2019-04-28T00:51:32.987Z,11.80
2019-04-28T00:54:02.090Z,10.88
2019-04-28T00:56:31.691Z,11.40
2019-04-28T00:59:01.634Z,11.40
2019-04-28T01:01:55.942Z,9.60
2019-04-28T01:04:25.984Z,11.57
2019-04-28T01:06:55.343Z,8.18
2019-04-28T01:09:24.565Z,10.53
2019-04-28T01:11:53.619Z,10.18
2019-04-28T01:14:23.006Z,13.18
2019-04-28T01:16:59.872Z,11.18
2019-04-28T01:19:32.199Z,11.70
2019-04-28T01:22:15.178Z,10.63
2019-04-28T01:24:44.337Z,11.93
2019-04-28T01:27:32.256Z,12.43
2019-04-28T01:30:08.280Z,15.25
2019-04-28T01:32:40.091Z,12.45
2019-04-28T01:35:09.765Z,14.50
2019-04-28T01:37:40.566Z,11.95
2019-04-28T01:40:10.062Z,12.28
2019-04-28T01:42:38.928Z,11.38
2019-04-28T01:45:07.867Z,16.55
2019-04-28T01:47:36.826Z,11.50
2019-04-28T01:50:06.093Z,12.23
2019-04-28T01:52:35.337Z,15.03
2019-04-28T01:55:04.345Z,11.93
2019-04-28T01:57:33.197Z,12.30
2019-04-28T02:00:02.211Z,10.15
2019-04-28T02:02:31.543Z,15.13
2019-04-28T02:05:00.644Z,18.10
2019-04-28T02:07:34.628Z,15.60
2019-04-28T02:10:01.412Z,11.53
2019-04-28T02:12:30.673Z,14.33
2019-04-28T02:15:01.068Z,11.78
2019-04-28T02:17:30.672Z,16.57
2019-04-28T02:20:00.790Z,14.45
2019-04-28T02:22:34.937Z,13.53
2019-04-28T02:25:09.984Z,16.75
2019-04-28T02:27:40.081Z,10.65
2019-04-28T02:30:11.448Z,11.50
2019-04-28T02:32:41.063Z,10.90
2019-04-28T02:35:34.931Z,18.75
2019-04-28T02:38:04.290Z,12.93
2019-04-28T02:40:36.223Z,13.68
2019-04-28T02:43:06.195Z,12.75
2019-04-28T02:45:36.612Z,14.03
2019-04-28T02:48:07.702Z,11.88
2019-04-28T02:50:52.780Z,12.47
2019-04-28T02:53:33.954Z,13.35
2019-04-28T02:56:03.106Z,9.45
2019-04-28T02:58:32.439Z,13.78
2019-04-28T03:01:12.541Z,12.58
2019-04-28T03:03:32.827Z,16.35
2019-04-28T03:06:21.246Z,11.95
2019-04-28T03:08:51.004Z,11.43
2019-04-28T03:11:20.571Z,16.70
2019-04-28T03:13:51.182Z,13.28
2019-04-28T03:16:23.079Z,16.65
2019-04-28T03:18:52.082Z,12.58
2019-04-28T03:21:21.551Z,13.45
2019-04-28T03:23:51.628Z,13.35
2019-04-28T03:26:36.882Z,14.38
2019-04-28T03:29:20.548Z,12.23
2019-04-28T03:32:28.136Z,12.13
2019-04-28T03:34:45.894Z,10.80
2019-04-28T03:37:15.016Z,16.20
2019-04-28T03:39:44.132Z,12.80
2019-04-28T03:42:17.183Z,8.88
2019-04-28T03:44:47.129Z,14.23
2019-04-28T03:47:21.126Z,9.60
2019-04-28T03:49:50.460Z,12.43
2019-04-28T03:52:21.178Z,10.80
2019-04-28T03:54:51.179Z,12.15
2019-04-28T03:57:21.606Z,10.90
2019-04-28T03:59:51.385Z,16.52
2019-04-28T04:02:23.639Z,11.60
2019-04-28T04:04:52.549Z,12.98
2019-04-28T04:07:22.165Z,11.97
2019-04-28T04:10:06.470Z,11.97
2019-04-28T04:13:01.029Z,13.80
2019-04-28T04:15:55.219Z,14.83
2019-04-28T04:18:41.772Z,13.00
2019-04-28T04:21:11.606Z,12.33
2019-04-28T04:23:41.385Z,15.03
2019-04-28T04:26:32.787Z,11.65
2019-04-28T04:29:01.110Z,16.62
2019-04-28T04:31:31.737Z,11.83
2019-04-28T04:34:03.405Z,12.95
2019-04-28T04:36:31.878Z,11.70
2019-04-28T04:39:01.812Z,15.32
2019-04-28T04:41:31.085Z,10.15
2019-04-28T04:44:01.310Z,14.58
2019-04-28T04:46:31.386Z,11.15
2019-04-28T04:49:01.076Z,13.58
2019-04-28T04:51:30.931Z,13.83
2019-04-28T04:54:01.158Z,11.80
2019-04-28T04:56:30.720Z,9.95
2019-04-28T04:59:02.764Z,10.53
2019-04-28T05:01:50.231Z,15.30
2019-04-28T05:04:26.530Z,15.35
2019-04-28T05:06:55.542Z,22.93
2019-04-28T05:09:24.660Z,15.08
2019-04-28T05:11:54.182Z,10.82
2019-04-28T05:14:23.813Z,13.90
2019-04-28T05:16:53.119Z,17.67
2019-04-28T05:19:22.277Z,17.25
2019-04-28T05:21:51.297Z,10.55
2019-04-28T05:24:30.212Z,12.65
2019-04-28T05:26:59.623Z,11.38
2019-04-28T05:29:30.628Z,22.82
2019-04-28T05:32:03.173Z,10.25
2019-04-28T05:34:30.192Z,13.90
2019-04-28T05:37:00.674Z,8.73
2019-04-28T05:39:33.596Z,13.22
2019-04-28T05:42:02.702Z,8.03
2019-04-28T05:44:32.239Z,14.18
2019-04-28T05:47:01.388Z,15.90
2019-04-28T05:49:40.616Z,11.55
2019-04-28T05:52:29.895Z,11.33
2019-04-28T05:55:05.669Z,11.53
2019-04-28T05:57:43.688Z,14.45
2019-04-28T06:00:21.834Z,9.55
2019-04-28T06:02:56.415Z,9.65
2019-04-28T06:05:23.043Z,12.13
2019-04-28T06:08:17.545Z,16.93
2019-04-28T06:10:47.066Z,16.82
2019-04-28T06:13:20.255Z,11.55
2019-04-28T06:15:51.352Z,15.25
2019-04-28T06:18:20.675Z,9.88
2019-04-28T06:20:49.852Z,12.37
2019-04-28T06:23:19.338Z,9.98
2019-04-28T06:25:50.929Z,12.78
2019-04-28T06:28:20.492Z,12.60
2019-04-28T06:30:49.613Z,11.48
2019-04-28T06:33:19.152Z,11.00
2019-04-28T06:35:48.259Z,9.03
2019-04-28T06:38:17.885Z,10.05
2019-04-28T06:40:47.651Z,10.48
2019-04-28T06:43:17.546Z,16.73
2019-04-28T06:45:47.187Z,14.83
2019-04-28T06:48:20.672Z,13.45
2019-04-28T06:50:53.100Z,9.98
2019-04-28T06:53:26.570Z,10.95
2019-04-28T06:55:58.776Z,8.45
2019-04-28T06:58:28.102Z,14.43
2019-04-28T07:00:57.730Z,10.28
2019-04-28T07:03:29.652Z,10.53
2019-04-28T07:06:00.364Z,14.00
2019-04-28T07:08:29.994Z,14.87
2019-04-28T07:11:21.555Z,16.87
2019-04-28T07:14:07.202Z,8.03
2019-04-28T07:16:36.984Z,7.92
2019-04-28T07:19:06.394Z,7.45
2019-04-28T07:21:43.677Z,11.75
2019-04-28T07:24:13.046Z,12.15
2019-04-28T07:26:42.470Z,8.90
2019-04-28T07:29:12.079Z,9.33
2019-04-28T07:31:41.719Z,12.25
2019-04-28T07:34:11.265Z,7.60
2019-04-28T07:36:41.113Z,8.48
2019-04-28T07:39:10.224Z,13.40
2019-04-28T07:41:46.704Z,11.40
2019-04-28T07:44:15.937Z,7.53
2019-04-28T07:46:45.348Z,9.28
2019-04-28T07:49:17.058Z,15.10
2019-04-28T07:52:03.048Z,8.45
2019-04-28T07:54:36.017Z,9.05
2019-04-28T07:57:05.569Z,10.85
2019-04-28T07:59:34.791Z,10.20
2019-04-28T08:02:23.451Z,14.65
2019-04-28T08:05:14.169Z,11.40
2019-04-28T08:07:43.462Z,10.03
2019-04-28T08:10:12.912Z,11.93
2019-04-28T08:12:42.499Z,14.83
2019-04-28T08:15:11.676Z,16.23
2019-04-28T08:17:41.175Z,12.73
2019-04-28T08:20:12.889Z,12.20
2019-04-28T08:22:44.676Z,8.98
2019-04-28T08:25:14.020Z,14.73
2019-04-28T08:27:45.821Z,11.50
2019-04-28T08:30:14.876Z,10.68
2019-04-28T08:32:53.207Z,12.13
2019-04-28T08:35:22.417Z,12.65
2019-04-28T08:37:51.795Z,12.33
2019-04-28T08:40:21.088Z,13.55
2019-04-28T08:45:47.531Z,11.50
2019-04-28T08:48:16.800Z,13.83
2019-04-28T08:50:52.499Z,12.65
2019-04-28T08:53:24.926Z,13.18
2019-04-28T08:56:02.846Z,10.35
2019-04-28T08:58:31.787Z,11.22
2019-04-28T09:01:01.126Z,8.93
2019-04-28T09:03:30.406Z,15.23
2019-04-28T09:06:01.469Z,11.90
2019-04-28T09:08:30.500Z,10.85
2019-04-28T09:10:59.946Z,10.35
2019-04-28T09:13:28.848Z,8.30
2019-04-28T09:15:57.919Z,8.13
2019-04-28T09:18:26.899Z,9.58
2019-04-28T09:20:55.911Z,9.88
2019-04-28T09:23:24.857Z,8.40
2019-04-28T09:25:53.890Z,7.15
2019-04-28T09:28:22.899Z,12.00
2019-04-28T09:30:52.188Z,8.08
2019-04-28T09:33:21.252Z,6.58
2019-04-28T09:35:50.323Z,8.38
2019-04-28T09:38:19.355Z,5.50
2019-04-28T09:40:48.414Z,6.37
2019-04-28T09:43:35.246Z,4.67
2019-04-28T09:46:08.709Z,7.65
2019-04-28T09:48:39.982Z,5.85
2019-04-28T09:51:19.183Z,6.87
2019-04-28T09:53:48.494Z,12.55
2019-04-28T09:59:38.903Z,3.80
2019-04-28T10:02:37.783Z,4.85
2019-04-28T10:05:23.485Z,5.35
2019-04-28T10:07:53.105Z,5.72
2019-04-28T10:10:51.259Z,3.25
2019-04-28T10:14:20.992Z,5.22
2019-04-28T10:17:18.937Z,3.55
2019-04-28T10:23:48.291Z,7.67
2019-04-28T10:26:26.321Z,3.83
2019-04-28T10:29:29.694Z,6.55
2019-04-28T10:37:55.915Z,3.95
2019-04-28T10:44:51.963Z,3.20
2019-04-28T10:59:18.193Z,2.80
2019-04-28T11:01:54.172Z,4.40
2019-04-28T11:04:43.330Z,2.20
2019-04-28T11:07:14.450Z,2.85
2019-04-28T11:09:56.272Z,3.55
2019-04-28T11:12:28.639Z,3.10
2019-04-28T11:14:58.113Z,3.00
2019-04-28T11:18:58.608Z,2.45
2019-04-28T11:20:46.692Z,4.28
2019-04-28T11:23:50.730Z,4.15
2019-04-28T11:26:22.253Z,6.55
2019-04-28T11:32:47.776Z,5.55
2019-04-28T11:38:41.958Z,4.05
2019-04-28T11:41:50.511Z,6.92
2019-04-28T11:44:39.200Z,4.28
2019-04-28T11:50:29.623Z,4.97
2019-04-28T11:56:40.488Z,3.83
2019-04-28T11:58:56.094Z,2.42
2019-04-28T12:01:45.681Z,5.28
2019-04-28T12:04:49.085Z,2.40
2019-04-28T12:07:30.832Z,3.20
2019-04-28T12:10:31.173Z,4.20
2019-04-28T12:13:12.792Z,3.20
2019-04-28T12:16:03.400Z,6.15
2019-04-28T12:19:04.665Z,2.60
2019-04-28T12:21:40.137Z,3.10
2019-04-28T12:24:07.739Z,2.75
2019-04-28T12:26:37.421Z,6.80
2019-04-28T12:29:56.742Z,18.95
2019-04-28T12:32:44.655Z,2.98
2019-04-28T12:35:47.887Z,3.47
2019-04-28T12:38:32.511Z,3.80
2019-04-28T12:41:05.293Z,5.58
2019-04-28T12:43:42.736Z,3.42
2019-04-28T12:49:41.996Z,2.80
2019-04-28T12:52:13.312Z,4.58
2019-04-28T12:54:44.686Z,5.37
2019-04-28T12:57:33.360Z,2.35
2019-04-28T13:00:56.298Z,2.83
2019-04-28T13:03:42.383Z,3.67
2019-04-28T13:07:09.182Z,2.90
2019-04-28T13:09:39.902Z,2.05
2019-04-28T13:12:09.222Z,1.98
2019-04-28T13:15:02.964Z,4.85
2019-04-28T13:17:51.194Z,5.00
2019-04-28T13:20:33.601Z,2.20
2019-04-28T13:23:03.389Z,4.90
2019-04-28T13:25:35.219Z,2.90
2019-04-28T13:28:04.599Z,1.75
2019-04-28T13:30:34.243Z,3.35
2019-04-28T13:33:03.717Z,4.00
2019-04-28T13:35:35.667Z,3.20
2019-04-28T13:38:05.060Z,3.58
2019-04-28T13:40:53.555Z,3.50
2019-04-28T13:43:26.382Z,3.45
2019-04-28T13:45:55.313Z,2.12
2019-04-28T13:48:24.296Z,3.92
2019-04-28T13:50:54.991Z,3.02
2019-04-28T13:53:24.070Z,2.30
2019-04-28T13:56:02.375Z,2.45
2019-04-28T13:58:53.799Z,5.20
2019-04-28T14:01:40.282Z,2.22
2019-04-28T14:04:28.495Z,3.65
2019-04-28T14:07:07.909Z,3.15
2019-04-28T14:09:38.549Z,2.40
2019-04-28T14:12:08.168Z,5.67
2019-04-28T14:14:46.648Z,3.30
2019-04-28T14:17:15.932Z,3.75
2019-04-28T14:20:13.868Z,2.10
2019-04-28T14:22:43.138Z,3.15
2019-04-28T14:25:14.902Z,3.55
2019-04-28T14:27:45.817Z,2.15
2019-04-28T14:33:07.335Z,2.22
2019-04-28T14:35:40.665Z,2.02
2019-04-28T14:38:20.559Z,3.05
2019-04-28T14:40:50.625Z,2.17
2019-04-28T14:43:23.689Z,2.95
2019-04-28T14:46:22.990Z,2.20
2019-04-28T14:49:12.437Z,1.50
2019-04-28T14:55:44.850Z,3.35
2019-04-28T14:58:14.958Z,1.60
2019-04-28T15:01:06.938Z,2.00
2019-04-28T15:03:38.973Z,1.40
2019-04-28T15:06:33.102Z,2.10
2019-04-28T15:09:26.966Z,1.65
2019-04-28T15:11:59.467Z,1.40
2019-04-28T15:14:28.448Z,2.17
2019-04-28T15:16:57.504Z,2.20
2019-04-28T15:19:27.277Z,2.90
2019-04-28T15:21:56.500Z,1.47
2019-04-28T15:24:25.430Z,2.25
2019-04-28T15:26:54.668Z,1.80
2019-04-28T15:29:23.783Z,1.70
2019-04-28T15:32:15.520Z,4.95
2019-04-28T15:34:44.550Z,2.02
2019-04-28T15:37:15.617Z,1.75
2019-04-28T15:39:44.621Z,2.05
2019-04-28T15:42:13.958Z,2.17
2019-04-28T15:44:43.183Z,2.08
2019-04-28T15:47:12.295Z,1.85
2019-04-28T15:49:41.487Z,2.55
2019-04-28T15:52:10.743Z,1.60
2019-04-28T15:54:39.801Z,3.50
2019-04-28T15:57:08.947Z,2.75
2019-04-28T15:59:37.989Z,2.77
2019-04-28T16:02:07.147Z,2.40
2019-04-28T16:04:36.397Z,1.98
2019-04-28T16:07:07.108Z,1.47
2019-04-28T16:09:36.219Z,2.60
2019-04-28T16:12:05.246Z,1.85
2019-04-28T16:14:34.467Z,2.12
2019-04-28T16:17:03.623Z,1.70
2019-04-28T16:19:33.046Z,1.90
2019-04-28T16:22:03.671Z,2.77
2019-04-28T16:24:32.677Z,1.62
2019-04-28T16:27:02.105Z,2.83
2019-04-28T16:29:31.162Z,2.40
2019-04-28T16:32:00.725Z,3.10
2019-04-28T16:34:49.289Z,2.17
2019-04-28T16:37:18.451Z,3.65
2019-04-28T16:40:11.342Z,2.20
2019-04-28T16:42:40.580Z,2.90
2019-04-28T16:45:09.725Z,2.98
2019-04-28T16:47:38.924Z,2.60
2019-04-28T16:50:08.901Z,2.95
2019-04-28T16:53:01.571Z,3.87
2019-04-28T16:55:40.907Z,3.58
2019-04-28T16:58:31.028Z,2.42
2019-04-28T17:01:28.280Z,2.30
2019-04-28T17:04:02.246Z,5.42
2019-04-28T17:06:29.038Z,2.70
2019-04-28T17:08:58.781Z,1.95
2019-04-28T17:11:27.889Z,3.12
2019-04-28T17:13:57.779Z,2.50
2019-04-28T17:16:27.200Z,2.58
2019-04-28T17:18:56.289Z,3.05
2019-04-28T17:21:25.317Z,3.22
2019-04-28T17:23:54.383Z,3.25
2019-04-28T17:26:23.563Z,3.20
2019-04-28T17:28:55.350Z,4.65
2019-04-28T17:31:24.325Z,2.00
2019-04-28T17:33:53.488Z,2.05
2019-04-28T17:36:23.386Z,2.45
2019-04-28T17:38:52.584Z,2.20
2019-04-28T17:41:21.944Z,2.65
2019-04-28T17:43:51.202Z,2.25
2019-04-28T17:46:20.592Z,2.12
2019-04-28T17:48:55.779Z,3.62
2019-04-28T17:51:25.094Z,2.80
2019-04-28T17:53:54.474Z,3.35
2019-04-28T17:56:25.030Z,3.77
2019-04-28T18:04:10.227Z,3.10
2019-04-28T18:05:58.092Z,2.42
2019-04-28T18:17:49.775Z,2.35
2019-04-28T18:20:27.027Z,1.70
2019-04-28T18:22:57.208Z,4.00
2019-04-28T18:25:33.189Z,2.15
2019-04-28T18:28:02.494Z,3.52
2019-04-28T18:30:34.115Z,2.90
2019-04-28T18:33:13.025Z,1.40
2019-04-28T18:35:45.789Z,2.72
2019-04-28T18:38:34.459Z,2.85
2019-04-28T18:41:12.345Z,3.70
2019-04-28T18:44:00.729Z,3.85
2019-04-28T18:46:31.100Z,3.62
2019-04-28T18:49:00.614Z,2.85
2019-04-28T18:51:29.785Z,3.15
2019-04-28T18:54:00.759Z,3.45
2019-04-28T18:56:31.431Z,3.30
2019-04-28T18:59:00.720Z,2.60
2019-04-28T19:01:54.926Z,4.42
2019-04-28T19:04:26.926Z,3.47
2019-04-28T19:07:04.838Z,3.10
2019-04-28T19:09:45.916Z,3.02
2019-04-28T19:12:36.998Z,3.50
2019-04-28T19:15:25.570Z,3.90
2019-04-28T19:18:05.158Z,3.52
2019-04-28T19:20:35.764Z,5.45
2019-04-28T19:23:06.607Z,3.42
2019-04-28T19:25:36.041Z,4.58
2019-04-28T19:28:05.034Z,4.20
2019-04-28T19:30:34.004Z,6.42
2019-04-28T19:33:03.200Z,6.97
2019-04-28T19:35:32.283Z,5.47
2019-04-28T19:38:03.142Z,4.95
2019-04-28T19:40:34.653Z,4.40
2019-04-28T19:43:04.194Z,3.67
2019-04-28T19:45:35.016Z,2.65
2019-04-28T19:48:04.255Z,3.37
2019-04-28T19:50:33.503Z,3.20
2019-04-28T19:53:02.722Z,3.12
2019-04-28T19:55:35.819Z,3.15
2019-04-28T19:58:20.832Z,3.30
2019-04-28T20:00:59.575Z,2.50
2019-04-28T20:03:28.860Z,4.53
2019-04-28T20:05:57.956Z,2.85
2019-04-28T20:08:27.244Z,3.90
2019-04-28T20:10:56.982Z,2.87
2019-04-28T20:13:26.157Z,2.60
2019-04-28T20:15:55.533Z,3.00
2019-04-28T20:18:24.902Z,3.30
2019-04-28T20:20:54.166Z,3.72
2019-04-28T20:23:23.312Z,4.20
2019-04-28T20:25:52.597Z,3.17
2019-04-28T20:28:21.795Z,3.87
2019-04-28T20:30:51.338Z,4.00
2019-04-28T20:33:20.551Z,2.52
2019-04-28T20:35:54.714Z,3.12
2019-04-28T20:38:33.824Z,3.72
2019-04-28T20:41:18.021Z,3.05
2019-04-28T20:43:47.235Z,2.65
2019-04-28T20:46:16.399Z,4.15
2019-04-28T20:48:45.400Z,2.55
2019-04-28T20:51:14.609Z,2.70
2019-04-28T20:53:43.625Z,4.30
2019-04-28T20:56:13.092Z,4.03
2019-04-28T20:58:42.092Z,2.62
2019-04-28T21:01:11.254Z,3.40
2019-04-28T21:03:40.658Z,3.40
2019-04-28T21:06:09.686Z,5.28
2019-04-28T21:08:38.909Z,2.87
2019-04-28T21:11:08.050Z,2.77
2019-04-28T21:13:37.125Z,3.92
2019-04-28T21:16:09.842Z,3.22
2019-04-28T21:18:38.875Z,2.98
2019-04-28T21:21:07.936Z,3.75
2019-04-28T21:23:37.005Z,4.00
2019-04-28T21:26:06.119Z,4.50
2019-04-28T21:28:35.096Z,3.77
2019-04-28T21:31:04.174Z,4.22
2019-04-28T21:33:33.382Z,6.50
2019-04-28T21:36:02.441Z,4.05
2019-04-28T21:38:31.842Z,4.85
2019-04-28T21:41:00.722Z,3.33
2019-04-28T21:43:50.887Z,4.85
2019-04-28T21:46:27.519Z,3.95
2019-04-28T21:49:01.960Z,5.72
2019-04-28T21:51:31.038Z,3.90
2019-04-28T21:54:00.191Z,4.22
2019-04-28T21:56:29.579Z,3.98
2019-04-28T21:58:58.568Z,4.25
2019-04-28T22:01:28.256Z,3.60
2019-04-28T22:03:57.684Z,3.98
2019-04-28T22:06:26.726Z,3.90
2019-04-28T22:08:55.706Z,4.53
2019-04-28T22:11:24.615Z,4.35
2019-04-28T22:13:53.584Z,4.20
2019-04-28T22:16:22.961Z,4.35
2019-04-28T22:18:51.836Z,5.62
2019-04-28T22:21:20.750Z,5.05
2019-04-28T22:24:05.289Z,7.62
2019-04-28T22:26:44.519Z,5.40
2019-04-28T22:29:13.746Z,5.03
2019-04-28T22:31:43.043Z,5.33
2019-04-28T22:34:13.978Z,5.72
2019-04-28T22:36:44.145Z,5.53
2019-04-28T22:39:13.480Z,4.83
2019-04-28T22:41:42.358Z,6.50
2019-04-28T22:44:11.233Z,6.40
2019-04-28T22:46:40.124Z,5.87
2019-04-28T22:49:09.042Z,8.55
2019-04-28T22:51:37.887Z,5.78
2019-04-28T22:54:12.337Z,7.37
2019-04-28T22:56:43.472Z,6.67
2019-04-28T22:59:16.638Z,8.35
2019-04-28T23:01:49.117Z,6.33
2019-04-28T23:04:37.184Z,6.97
2019-04-28T23:07:06.264Z,8.03
2019-04-28T23:09:35.147Z,7.37
2019-04-28T23:12:04.145Z,7.58
2019-04-28T23:14:33.160Z,10.30
2019-04-28T23:17:02.075Z,9.13
2019-04-28T23:19:33.434Z,6.92
2019-04-28T23:22:30.366Z,8.15
2019-04-28T23:24:59.249Z,8.15
2019-04-28T23:27:28.087Z,10.03
2019-04-28T23:29:56.942Z,10.72
2019-04-28T23:32:25.796Z,6.28
2019-04-28T23:34:54.681Z,7.10
2019-04-28T23:37:23.534Z,8.53
2019-04-28T23:39:52.317Z,6.90
2019-04-28T23:42:26.960Z,7.08
2019-04-28T23:44:55.810Z,11.22
2019-04-28T23:47:24.713Z,8.90
2019-04-28T23:49:53.670Z,9.18
2019-04-28T23:52:34.977Z,11.63
2019-04-28T23:55:05.364Z,8.00
2019-04-28T23:57:34.310Z,11.88
